Aérodrome :
LOGIN :

S'inscrire | Disclaimer

   EN    FR    IT 

 










Légende :    VFR   VFR Marginal   IFR   IFR Intensif   IFR Très Intensif
Visi : 
Plafond : 
>= 8 km
>= 3000ft
5 à 8 km
1000 à 3000 ft
1500m à 5 km
500 à 1000 ft
800 à 1500m
200 à 500 ft
< 800m
< 200 ft
Symboles :   Orages  Brouillard  Fortes neiges  Fortes précipitations  Vent > 20 kt
SIGMETs :   Divers  Orages  Givrage  Turbulence  Onde Orograph.  Cendres Volcan.







- Altitude de l'aérodrome : 256 ft
- Code IATA : CFR
- Voir les cartes d'approche


LFRK - Caen

DERNIER METAR :
  • 181130Z AUTO 23010KT 200V260 9999 BKN013 BKN018 OVC032 20/16 Q1014 TEMPO SHRA

METARs EXPIRÉS :
  • 181100Z AUTO 23010KT 9999 OVC011 19/16 Q1014 TEMPO SHRA BECMG BKN025
  • 181030Z AUTO /////KT 9999 BKN012 OVC018 18/17 Q1014
  • 181000Z AUTO /////KT 9999 BKN008 BKN012 BKN024 18/17 Q1014
  • 180930Z AUTO /////KT 9999 4500 OVC015 19/16 Q1013
  • 180900Z AUTO /////KT 9999 OVC015 19/15 Q1013

TAF TAF LFRK
Valide du 18 à 12h jusqu'au 18 à 21h UTC


181100Z 1812/1821 25010KT 9999 BKN025
TEMPO 1812/1814 5000 SHRA BKN014
Météo : +33 2 31 26 68 11
Pas de NOTAMs connus pour ce terrain.



MET'MAP, la Météo Aéronautique d'un coup d'oeil ! - Copyright ORBIFLY Décembre 2007 - Disclaimer

ORBIFLY MET'MAP TEAM :

Programmation & Développement : Alexandra Zaïnal
Conception & Développement : Baudouin d'Aumeries
Co-Programmation & Développement : Marc-Olivier Méhu
Soutien technique & logistique : Manuel Goepfert

Contact : metmap@orbifly.com




SOURCES & CREDITS :

   NOAA